sensor_id;sensor_type;location;lat;lon;timestamp;temperature;humidity
1546;DHT22;766;51.502;9.752;2023-12-20T00:01:29;3.50;99.90
1546;DHT22;766;51.502;9.752;2023-12-20T00:03:58;3.50;99.90
1546;DHT22;766;51.502;9.752;2023-12-20T00:06:26;3.50;99.90
1546;DHT22;766;51.502;9.752;2023-12-20T00:08:56;3.50;99.90
1546;DHT22;766;51.502;9.752;2023-12-20T00:11:24;3.50;99.90
1546;DHT22;766;51.502;9.752;2023-12-20T00:13:52;3.50;99.90
1546;DHT22;766;51.502;9.752;2023-12-20T00:16:21;3.50;99.90
1546;DHT22;766;51.502;9.752;2023-12-20T00:18:49;3.50;99.90
1546;DHT22;766;51.502;9.752;2023-12-20T00:21:17;3.50;99.90
1546;DHT22;766;51.502;9.752;2023-12-20T00:23:45;3.50;99.90
1546;DHT22;766;51.502;9.752;2023-12-20T00:26:15;3.50;99.90
1546;DHT22;766;51.502;9.752;2023-12-20T00:28:43;3.50;99.90
1546;DHT22;766;51.502;9.752;2023-12-20T00:31:11;3.50;99.90
1546;DHT22;766;51.502;9.752;2023-12-20T00:33:39;3.50;99.90
1546;DHT22;766;51.502;9.752;2023-12-20T00:36:14;3.50;99.90
1546;DHT22;766;51.502;9.752;2023-12-20T00:38:42;3.50;99.90
1546;DHT22;766;51.502;9.752;2023-12-20T00:41:10;3.50;99.90
1546;DHT22;766;51.502;9.752;2023-12-20T00:43:39;3.50;99.90
1546;DHT22;766;51.502;9.752;2023-12-20T00:46:08;3.50;99.90
1546;DHT22;766;51.502;9.752;2023-12-20T00:48:36;3.50;99.90
1546;DHT22;766;51.502;9.752;2023-12-20T00:51:04;3.60;99.90
1546;DHT22;766;51.502;9.752;2023-12-20T00:53:33;3.60;99.90
1546;DHT22;766;51.502;9.752;2023-12-20T00:56:01;3.60;99.90
1546;DHT22;766;51.502;9.752;2023-12-20T00:58:29;3.60;99.90
1546;DHT22;766;51.502;9.752;2023-12-20T01:00:58;3.60;99.90
1546;DHT22;766;51.502;9.752;2023-12-20T01:03:27;3.60;99.90
1546;DHT22;766;51.502;9.752;2023-12-20T01:05:55;3.70;99.90
1546;DHT22;766;51.502;9.752;2023-12-20T01:08:23;3.70;99.90
1546;DHT22;766;51.502;9.752;2023-12-20T01:10:52;3.70;99.90
1546;DHT22;766;51.502;9.752;2023-12-20T01:13:20;3.70;99.90
1546;DHT22;766;51.502;9.752;2023-12-20T01:15:48;3.80;99.90
1546;DHT22;766;51.502;9.752;2023-12-20T01:18:17;3.80;99.90
1546;DHT22;766;51.502;9.752;2023-12-20T01:20:46;3.80;99.90
1546;DHT22;766;51.502;9.752;2023-12-20T01:23:14;3.80;99.90
1546;DHT22;766;51.502;9.752;2023-12-20T01:25:42;3.80;99.90
1546;DHT22;766;51.502;9.752;2023-12-20T01:28:10;3.80;99.90
1546;DHT22;766;51.502;9.752;2023-12-20T01:30:39;3.90;99.90
1546;DHT22;766;51.502;9.752;2023-12-20T01:33:07;3.90;99.90
1546;DHT22;766;51.502;9.752;2023-12-20T01:35:36;3.90;99.90
1546;DHT22;766;51.502;9.752;2023-12-20T01:38:05;3.90;99.90
1546;DHT22;766;51.502;9.752;2023-12-20T01:40:33;3.90;99.90
1546;DHT22;766;51.502;9.752;2023-12-20T01:43:04;4.00;99.90
1546;DHT22;766;51.502;9.752;2023-12-20T01:45:34;4.00;99.90
1546;DHT22;766;51.502;9.752;2023-12-20T01:48:04;4.00;99.90
1546;DHT22;766;51.502;9.752;2023-12-20T01:50:36;4.00;99.90
1546;DHT22;766;51.502;9.752;2023-12-20T01:53:05;4.00;99.90
1546;DHT22;766;51.502;9.752;2023-12-20T01:55:37;4.10;99.90
1546;DHT22;766;51.502;9.752;2023-12-20T01:58:07;4.10;99.90
1546;DHT22;766;51.502;9.752;2023-12-20T02:00:37;4.10;99.90
1546;DHT22;766;51.502;9.752;2023-12-20T02:03:06;4.10;99.90
1546;DHT22;766;51.502;9.752;2023-12-20T02:05:36;4.10;99.90
1546;DHT22;766;51.502;9.752;2023-12-20T02:08:06;4.10;99.90
1546;DHT22;766;51.502;9.752;2023-12-20T02:10:35;4.10;99.90
1546;DHT22;766;51.502;9.752;2023-12-20T02:13:03;4.00;99.90
1546;DHT22;766;51.502;9.752;2023-12-20T02:15:32;4.10;99.90
1546;DHT22;766;51.502;9.752;2023-12-20T02:18:04;4.10;99.90
1546;DHT22;766;51.502;9.752;2023-12-20T02:20:32;4.10;99.90
1546;DHT22;766;51.502;9.752;2023-12-20T02:23:02;4.10;99.90
1546;DHT22;766;51.502;9.752;2023-12-20T02:25:30;4.10;99.90
1546;DHT22;766;51.502;9.752;2023-12-20T02:27:58;4.00;99.90
1546;DHT22;766;51.502;9.752;2023-12-20T02:30:27;4.00;99.90
1546;DHT22;766;51.502;9.752;2023-12-20T02:32:55;4.00;99.90
1546;DHT22;766;51.502;9.752;2023-12-20T02:35:24;3.90;99.90
1546;DHT22;766;51.502;9.752;2023-12-20T02:37:52;3.90;99.90
1546;DHT22;766;51.502;9.752;2023-12-20T02:40:22;4.00;99.90
1546;DHT22;766;51.502;9.752;2023-12-20T02:42:50;4.00;99.90
1546;DHT22;766;51.502;9.752;2023-12-20T02:45:18;4.00;99.90
1546;DHT22;766;51.502;9.752;2023-12-20T02:47:46;4.00;99.90
1546;DHT22;766;51.502;9.752;2023-12-20T02:50:15;4.00;99.90
1546;DHT22;766;51.502;9.752;2023-12-20T02:52:44;4.00;99.90
1546;DHT22;766;51.502;9.752;2023-12-20T02:55:12;4.00;99.90
1546;DHT22;766;51.502;9.752;2023-12-20T02:57:42;4.10;99.90
1546;DHT22;766;51.502;9.752;2023-12-20T03:00:11;4.10;99.90
1546;DHT22;766;51.502;9.752;2023-12-20T03:02:39;4.10;99.90
1546;DHT22;766;51.502;9.752;2023-12-20T03:05:08;4.10;99.90
1546;DHT22;766;51.502;9.752;2023-12-20T03:07:36;4.00;99.90
1546;DHT22;766;51.502;9.752;2023-12-20T03:10:06;3.90;99.90
1546;DHT22;766;51.502;9.752;2023-12-20T03:12:47;3.90;99.90
1546;DHT22;766;51.502;9.752;2023-12-20T03:15:17;3.80;99.90
1546;DHT22;766;51.502;9.752;2023-12-20T03:17:45;3.80;99.90
1546;DHT22;766;51.502;9.752;2023-12-20T03:20:17;3.80;99.90
1546;DHT22;766;51.502;9.752;2023-12-20T03:22:45;3.80;99.90
1546;DHT22;766;51.502;9.752;2023-12-20T03:25:13;3.80;99.90
1546;DHT22;766;51.502;9.752;2023-12-20T03:27:41;3.80;99.90
1546;DHT22;766;51.502;9.752;2023-12-20T03:30:12;3.80;99.90
1546;DHT22;766;51.502;9.752;2023-12-20T03:32:41;3.80;99.90
1546;DHT22;766;51.502;9.752;2023-12-20T03:35:09;3.80;99.90
1546;DHT22;766;51.502;9.752;2023-12-20T03:37:37;3.90;99.90
1546;DHT22;766;51.502;9.752;2023-12-20T03:40:06;3.90;99.90
1546;DHT22;766;51.502;9.752;2023-12-20T03:42:34;4.00;99.90
1546;DHT22;766;51.502;9.752;2023-12-20T03:45:03;4.00;99.90
1546;DHT22;766;51.502;9.752;2023-12-20T03:47:32;3.90;99.90
1546;DHT22;766;51.502;9.752;2023-12-20T03:50:00;3.70;99.90
1546;DHT22;766;51.502;9.752;2023-12-20T03:52:29;3.70;99.90
1546;DHT22;766;51.502;9.752;2023-12-20T03:54:57;3.70;99.90
1546;DHT22;766;51.502;9.752;2023-12-20T03:57:25;3.70;99.90
1546;DHT22;766;51.502;9.752;2023-12-20T03:59:53;3.80;99.90
1546;DHT22;766;51.502;9.752;2023-12-20T04:02:21;3.80;99.90
1546;DHT22;766;51.502;9.752;2023-12-20T04:04:51;3.90;99.90
1546;DHT22;766;51.502;9.752;2023-12-20T04:07:20;3.90;99.90
1546;DHT22;766;51.502;9.752;2023-12-20T04:09:48;4.00;99.90
1546;DHT22;766;51.502;9.752;2023-12-20T04:12:16;3.90;99.90
1546;DHT22;766;51.502;9.752;2023-12-20T04:14:44;3.90;99.90
1546;DHT22;766;51.502;9.752;2023-12-20T04:17:14;3.90;99.90
1546;DHT22;766;51.502;9.752;2023-12-20T04:19:43;3.90;99.90
1546;DHT22;766;51.502;9.752;2023-12-20T04:22:13;3.80;99.90
1546;DHT22;766;51.502;9.752;2023-12-20T04:24:41;3.80;99.90
1546;DHT22;766;51.502;9.752;2023-12-20T04:27:10;3.80;99.90
1546;DHT22;766;51.502;9.752;2023-12-20T04:29:38;3.70;99.90
1546;DHT22;766;51.502;9.752;2023-12-20T04:32:06;3.70;99.90
1546;DHT22;766;51.502;9.752;2023-12-20T04:34:34;3.70;99.90
1546;DHT22;766;51.502;9.752;2023-12-20T04:37:02;3.80;99.90
1546;DHT22;766;51.502;9.752;2023-12-20T04:39:32;3.80;99.90
1546;DHT22;766;51.502;9.752;2023-12-20T04:42:00;3.90;99.90
1546;DHT22;766;51.502;9.752;2023-12-20T04:44:28;3.90;99.90
1546;DHT22;766;51.502;9.752;2023-12-20T04:46:56;3.90;99.90
1546;DHT22;766;51.502;9.752;2023-12-20T04:49:25;3.90;99.90
1546;DHT22;766;51.502;9.752;2023-12-20T04:51:53;3.90;99.90
1546;DHT22;766;51.502;9.752;2023-12-20T04:54:23;3.90;99.90
1546;DHT22;766;51.502;9.752;2023-12-20T04:56:53;4.00;99.90
1546;DHT22;766;51.502;9.752;2023-12-20T04:59:21;3.90;99.90
1546;DHT22;766;51.502;9.752;2023-12-20T05:01:49;4.00;99.90
1546;DHT22;766;51.502;9.752;2023-12-20T05:04:18;4.00;99.90
1546;DHT22;766;51.502;9.752;2023-12-20T05:06:47;4.00;99.90
1546;DHT22;766;51.502;9.752;2023-12-20T05:09:16;4.00;99.90
1546;DHT22;766;51.502;9.752;2023-12-20T05:11:44;4.00;99.90
1546;DHT22;766;51.502;9.752;2023-12-20T05:14:14;4.00;99.90
1546;DHT22;766;51.502;9.752;2023-12-20T05:16:42;4.00;99.90
1546;DHT22;766;51.502;9.752;2023-12-20T05:19:10;4.00;99.90
1546;DHT22;766;51.502;9.752;2023-12-20T05:21:39;4.00;99.90
1546;DHT22;766;51.502;9.752;2023-12-20T05:24:07;4.00;99.90
1546;DHT22;766;51.502;9.752;2023-12-20T05:26:35;4.00;99.90
1546;DHT22;766;51.502;9.752;2023-12-20T05:29:03;3.90;99.90
1546;DHT22;766;51.502;9.752;2023-12-20T05:31:33;3.90;99.90
1546;DHT22;766;51.502;9.752;2023-12-20T05:34:01;3.80;99.90
1546;DHT22;766;51.502;9.752;2023-12-20T05:36:29;3.90;99.90
1546;DHT22;766;51.502;9.752;2023-12-20T05:38:58;3.90;99.90
1546;DHT22;766;51.502;9.752;2023-12-20T05:41:26;3.90;99.90
1546;DHT22;766;51.502;9.752;2023-12-20T05:43:54;3.90;99.90
1546;DHT22;766;51.502;9.752;2023-12-20T05:46:24;3.80;99.90
1546;DHT22;766;51.502;9.752;2023-12-20T05:48:54;3.80;99.90
1546;DHT22;766;51.502;9.752;2023-12-20T05:51:22;3.90;99.90
1546;DHT22;766;51.502;9.752;2023-12-20T05:53:50;3.90;99.90
1546;DHT22;766;51.502;9.752;2023-12-20T05:56:18;3.90;99.90
1546;DHT22;766;51.502;9.752;2023-12-20T05:58:47;3.90;99.90
1546;DHT22;766;51.502;9.752;2023-12-20T06:01:15;3.80;99.90
1546;DHT22;766;51.502;9.752;2023-12-20T06:03:47;3.80;99.90
1546;DHT22;766;51.502;9.752;2023-12-20T06:06:17;3.80;99.90
1546;DHT22;766;51.502;9.752;2023-12-20T06:08:46;3.80;99.90
1546;DHT22;766;51.502;9.752;2023-12-20T06:11:15;3.80;99.90
1546;DHT22;766;51.502;9.752;2023-12-20T06:13:43;3.80;99.90
1546;DHT22;766;51.502;9.752;2023-12-20T06:16:11;3.90;99.90
1546;DHT22;766;51.502;9.752;2023-12-20T06:18:40;3.90;99.90
1546;DHT22;766;51.502;9.752;2023-12-20T06:21:08;3.90;99.90
1546;DHT22;766;51.502;9.752;2023-12-20T06:23:41;3.90;99.90
1546;DHT22;766;51.502;9.752;2023-12-20T06:26:09;3.90;99.90
1546;DHT22;766;51.502;9.752;2023-12-20T06:28:37;3.90;99.90
1546;DHT22;766;51.502;9.752;2023-12-20T06:31:08;3.90;99.90
1546;DHT22;766;51.502;9.752;2023-12-20T06:33:36;3.90;99.90
1546;DHT22;766;51.502;9.752;2023-12-20T06:36:04;3.90;99.90
1546;DHT22;766;51.502;9.752;2023-12-20T06:38:35;3.90;99.90
1546;DHT22;766;51.502;9.752;2023-12-20T06:41:05;3.90;99.90
1546;DHT22;766;51.502;9.752;2023-12-20T06:43:33;4.00;99.90
1546;DHT22;766;51.502;9.752;2023-12-20T06:46:15;4.00;99.90
1546;DHT22;766;51.502;9.752;2023-12-20T06:48:44;4.00;99.90
1546;DHT22;766;51.502;9.752;2023-12-20T06:51:16;4.10;99.90
1546;DHT22;766;51.502;9.752;2023-12-20T06:53:44;4.10;99.90
1546;DHT22;766;51.502;9.752;2023-12-20T06:56:14;4.10;99.90
1546;DHT22;766;51.502;9.752;2023-12-20T06:58:45;4.10;99.90
1546;DHT22;766;51.502;9.752;2023-12-20T07:01:14;4.00;99.90
1546;DHT22;766;51.502;9.752;2023-12-20T07:03:43;4.00;99.90
1546;DHT22;766;51.502;9.752;2023-12-20T07:06:11;4.00;99.90
1546;DHT22;766;51.502;9.752;2023-12-20T07:08:40;4.10;99.90
1546;DHT22;766;51.502;9.752;2023-12-20T07:11:08;4.00;99.90
1546;DHT22;766;51.502;9.752;2023-12-20T07:13:38;4.00;99.90
1546;DHT22;766;51.502;9.752;2023-12-20T07:16:06;4.00;99.90
1546;DHT22;766;51.502;9.752;2023-12-20T07:18:34;4.00;99.90
1546;DHT22;766;51.502;9.752;2023-12-20T07:21:09;4.00;99.90
1546;DHT22;766;51.502;9.752;2023-12-20T07:23:47;4.00;99.90
1546;DHT22;766;51.502;9.752;2023-12-20T07:26:17;3.90;99.90
1546;DHT22;766;51.502;9.752;2023-12-20T07:28:48;4.00;99.90
1546;DHT22;766;51.502;9.752;2023-12-20T07:31:22;3.90;99.90
1546;DHT22;766;51.502;9.752;2023-12-20T07:33:51;3.90;99.90
1546;DHT22;766;51.502;9.752;2023-12-20T07:36:20;4.00;99.90
1546;DHT22;766;51.502;9.752;2023-12-20T07:38:49;4.00;99.90
1546;DHT22;766;51.502;9.752;2023-12-20T07:41:27;4.00;99.90
1546;DHT22;766;51.502;9.752;2023-12-20T07:43:57;4.00;99.90
1546;DHT22;766;51.502;9.752;2023-12-20T07:46:29;4.00;99.90
1546;DHT22;766;51.502;9.752;2023-12-20T07:48:57;4.00;99.90
1546;DHT22;766;51.502;9.752;2023-12-20T07:51:26;4.00;99.90
1546;DHT22;766;51.502;9.752;2023-12-20T07:53:54;4.00;99.90
1546;DHT22;766;51.502;9.752;2023-12-20T07:56:22;4.00;99.90
1546;DHT22;766;51.502;9.752;2023-12-20T07:58:51;4.00;99.90
1546;DHT22;766;51.502;9.752;2023-12-20T08:01:22;4.00;99.90
1546;DHT22;766;51.502;9.752;2023-12-20T08:03:50;4.10;99.90
1546;DHT22;766;51.502;9.752;2023-12-20T08:06:19;4.10;99.90
1546;DHT22;766;51.502;9.752;2023-12-20T08:08:49;4.10;99.90
1546;DHT22;766;51.502;9.752;2023-12-20T08:11:28;4.10;99.90
1546;DHT22;766;51.502;9.752;2023-12-20T08:13:57;4.10;99.90
1546;DHT22;766;51.502;9.752;2023-12-20T08:16:26;4.10;99.90
1546;DHT22;766;51.502;9.752;2023-12-20T08:18:55;4.10;99.90
1546;DHT22;766;51.502;9.752;2023-12-20T08:21:23;4.10;99.90
1546;DHT22;766;51.502;9.752;2023-12-20T08:23:52;4.10;99.90
1546;DHT22;766;51.502;9.752;2023-12-20T08:26:21;4.10;99.90
1546;DHT22;766;51.502;9.752;2023-12-20T08:28:51;4.10;99.90
1546;DHT22;766;51.502;9.752;2023-12-20T08:31:19;4.10;99.90
1546;DHT22;766;51.502;9.752;2023-12-20T08:33:49;4.10;99.90
1546;DHT22;766;51.502;9.752;2023-12-20T08:36:18;4.20;99.90
1546;DHT22;766;51.502;9.752;2023-12-20T08:38:51;4.20;99.90
1546;DHT22;766;51.502;9.752;2023-12-20T08:41:20;4.20;99.90
1546;DHT22;766;51.502;9.752;2023-12-20T08:43:48;4.20;99.90
1546;DHT22;766;51.502;9.752;2023-12-20T08:46:17;4.20;99.90
1546;DHT22;766;51.502;9.752;2023-12-20T08:48:46;4.20;99.90
1546;DHT22;766;51.502;9.752;2023-12-20T08:51:16;4.20;99.90
1546;DHT22;766;51.502;9.752;2023-12-20T08:53:44;4.20;99.90
1546;DHT22;766;51.502;9.752;2023-12-20T08:56:14;4.20;99.90
1546;DHT22;766;51.502;9.752;2023-12-20T08:58:43;4.30;99.90
1546;DHT22;766;51.502;9.752;2023-12-20T09:01:11;4.30;99.90
1546;DHT22;766;51.502;9.752;2023-12-20T09:03:40;4.30;99.90
1546;DHT22;766;51.502;9.752;2023-12-20T09:06:09;4.30;99.90
1546;DHT22;766;51.502;9.752;2023-12-20T09:08:37;4.40;99.90
1546;DHT22;766;51.502;9.752;2023-12-20T09:11:06;4.40;99.90
1546;DHT22;766;51.502;9.752;2023-12-20T09:13:35;4.30;99.90
1546;DHT22;766;51.502;9.752;2023-12-20T09:16:03;4.30;99.90
1546;DHT22;766;51.502;9.752;2023-12-20T09:18:32;4.20;99.90
1546;DHT22;766;51.502;9.752;2023-12-20T09:21:00;4.10;99.90
1546;DHT22;766;51.502;9.752;2023-12-20T09:23:29;4.20;99.90
1546;DHT22;766;51.502;9.752;2023-12-20T09:25:58;4.20;99.90
1546;DHT22;766;51.502;9.752;2023-12-20T09:28:26;4.20;99.90
1546;DHT22;766;51.502;9.752;2023-12-20T09:30:54;4.20;99.90
1546;DHT22;766;51.502;9.752;2023-12-20T09:33:23;4.30;99.90
1546;DHT22;766;51.502;9.752;2023-12-20T09:35:52;4.20;99.90
1546;DHT22;766;51.502;9.752;2023-12-20T09:38:20;4.20;99.90
1546;DHT22;766;51.502;9.752;2023-12-20T09:40:49;4.20;99.90
1546;DHT22;766;51.502;9.752;2023-12-20T09:43:20;4.10;99.90
1546;DHT22;766;51.502;9.752;2023-12-20T09:45:48;4.10;99.90
1546;DHT22;766;51.502;9.752;2023-12-20T09:48:18;4.10;99.90
1546;DHT22;766;51.502;9.752;2023-12-20T09:50:47;4.00;99.90
1546;DHT22;766;51.502;9.752;2023-12-20T09:53:20;4.10;99.90
1546;DHT22;766;51.502;9.752;2023-12-20T09:55:50;4.00;99.90
1546;DHT22;766;51.502;9.752;2023-12-20T09:58:20;4.00;99.90
1546;DHT22;766;51.502;9.752;2023-12-20T10:00:49;4.00;99.90
1546;DHT22;766;51.502;9.752;2023-12-20T10:03:18;4.00;99.90
1546;DHT22;766;51.502;9.752;2023-12-20T10:05:52;4.00;99.90
1546;DHT22;766;51.502;9.752;2023-12-20T10:08:23;4.10;99.90
1546;DHT22;766;51.502;9.752;2023-12-20T10:10:52;4.10;99.90
1546;DHT22;766;51.502;9.752;2023-12-20T10:13:22;4.10;99.90
1546;DHT22;766;51.502;9.752;2023-12-20T10:15:50;4.10;99.90
1546;DHT22;766;51.502;9.752;2023-12-20T10:18:18;4.10;99.90
1546;DHT22;766;51.502;9.752;2023-12-20T10:20:47;4.20;99.90
1546;DHT22;766;51.502;9.752;2023-12-20T10:23:16;4.20;99.90
1546;DHT22;766;51.502;9.752;2023-12-20T10:25:55;4.20;99.90
1546;DHT22;766;51.502;9.752;2023-12-20T10:28:25;4.20;99.90
1546;DHT22;766;51.502;9.752;2023-12-20T10:30:55;4.20;99.90
1546;DHT22;766;51.502;9.752;2023-12-20T10:33:25;4.20;99.90
1546;DHT22;766;51.502;9.752;2023-12-20T10:35:54;4.20;99.90
1546;DHT22;766;51.502;9.752;2023-12-20T10:38:23;4.20;99.90
1546;DHT22;766;51.502;9.752;2023-12-20T10:40:56;4.20;99.90
1546;DHT22;766;51.502;9.752;2023-12-20T10:43:26;4.20;99.90
1546;DHT22;766;51.502;9.752;2023-12-20T10:45:57;4.20;99.90
1546;DHT22;766;51.502;9.752;2023-12-20T10:48:26;4.20;99.90
1546;DHT22;766;51.502;9.752;2023-12-20T10:50:58;4.20;99.90
1546;DHT22;766;51.502;9.752;2023-12-20T10:53:26;4.20;99.90
1546;DHT22;766;51.502;9.752;2023-12-20T10:55:56;4.20;99.90
1546;DHT22;766;51.502;9.752;2023-12-20T10:58:26;4.10;99.90
1546;DHT22;766;51.502;9.752;2023-12-20T11:00:59;4.10;99.90
1546;DHT22;766;51.502;9.752;2023-12-20T11:03:34;4.20;99.90
1546;DHT22;766;51.502;9.752;2023-12-20T11:06:07;4.10;99.90
1546;DHT22;766;51.502;9.752;2023-12-20T11:08:43;4.20;99.90
1546;DHT22;766;51.502;9.752;2023-12-20T11:11:17;4.10;99.90
1546;DHT22;766;51.502;9.752;2023-12-20T11:13:58;4.20;99.90
1546;DHT22;766;51.502;9.752;2023-12-20T11:16:27;4.20;99.90
1546;DHT22;766;51.502;9.752;2023-12-20T11:19:14;4.20;99.90
1546;DHT22;766;51.502;9.752;2023-12-20T11:21:42;4.20;99.90
1546;DHT22;766;51.502;9.752;2023-12-20T11:24:10;4.20;99.90
1546;DHT22;766;51.502;9.752;2023-12-20T11:26:47;4.20;99.90
1546;DHT22;766;51.502;9.752;2023-12-20T11:29:34;4.20;99.90
1546;DHT22;766;51.502;9.752;2023-12-20T11:32:03;4.20;99.90
1546;DHT22;766;51.502;9.752;2023-12-20T11:34:32;4.20;99.90
1546;DHT22;766;51.502;9.752;2023-12-20T11:37:02;4.20;99.90
1546;DHT22;766;51.502;9.752;2023-12-20T11:39:31;4.20;99.90
1546;DHT22;766;51.502;9.752;2023-12-20T11:42:04;4.20;99.90
1546;DHT22;766;51.502;9.752;2023-12-20T11:44:34;4.20;99.90
1546;DHT22;766;51.502;9.752;2023-12-20T11:47:04;4.20;99.90
1546;DHT22;766;51.502;9.752;2023-12-20T11:49:32;4.20;99.90
1546;DHT22;766;51.502;9.752;2023-12-20T11:52:00;4.30;99.90
1546;DHT22;766;51.502;9.752;2023-12-20T11:54:30;4.20;99.90
1546;DHT22;766;51.502;9.752;2023-12-20T11:56:58;4.30;99.90
1546;DHT22;766;51.502;9.752;2023-12-20T11:59:27;4.30;99.90
1546;DHT22;766;51.502;9.752;2023-12-20T12:01:56;4.40;99.90
1546;DHT22;766;51.502;9.752;2023-12-20T12:04:28;4.30;99.90
1546;DHT22;766;51.502;9.752;2023-12-20T12:06:57;4.40;99.90
1546;DHT22;766;51.502;9.752;2023-12-20T12:09:25;4.40;99.90
1546;DHT22;766;51.502;9.752;2023-12-20T12:11:53;4.40;99.90
1546;DHT22;766;51.502;9.752;2023-12-20T12:14:21;4.30;99.90
1546;DHT22;766;51.502;9.752;2023-12-20T12:16:49;4.30;99.90
1546;DHT22;766;51.502;9.752;2023-12-20T12:19:22;4.30;99.90
1546;DHT22;766;51.502;9.752;2023-12-20T12:21:50;4.20;99.90
1546;DHT22;766;51.502;9.752;2023-12-20T12:24:20;4.20;99.90
1546;DHT22;766;51.502;9.752;2023-12-20T12:26:52;4.20;99.90
1546;DHT22;766;51.502;9.752;2023-12-20T12:29:20;4.20;99.90
1546;DHT22;766;51.502;9.752;2023-12-20T12:31:48;4.20;99.90
1546;DHT22;766;51.502;9.752;2023-12-20T12:34:17;4.30;99.90
1546;DHT22;766;51.502;9.752;2023-12-20T12:36:48;4.30;99.90
1546;DHT22;766;51.502;9.752;2023-12-20T12:39:17;4.30;99.90
1546;DHT22;766;51.502;9.752;2023-12-20T12:41:46;4.30;99.90
1546;DHT22;766;51.502;9.752;2023-12-20T12:44:14;4.20;99.90
1546;DHT22;766;51.502;9.752;2023-12-20T12:46:44;4.20;99.90
1546;DHT22;766;51.502;9.752;2023-12-20T12:49:13;4.20;99.90
1546;DHT22;766;51.502;9.752;2023-12-20T12:51:42;4.20;99.90
1546;DHT22;766;51.502;9.752;2023-12-20T12:54:12;4.30;99.90
1546;DHT22;766;51.502;9.752;2023-12-20T12:56:43;4.30;99.90
1546;DHT22;766;51.502;9.752;2023-12-20T12:59:11;4.20;99.90
1546;DHT22;766;51.502;9.752;2023-12-20T13:01:39;4.30;99.90
1546;DHT22;766;51.502;9.752;2023-12-20T13:04:08;4.30;99.90
1546;DHT22;766;51.502;9.752;2023-12-20T13:06:38;4.30;99.90
1546;DHT22;766;51.502;9.752;2023-12-20T13:09:08;4.30;99.90
1546;DHT22;766;51.502;9.752;2023-12-20T13:11:38;4.40;99.90
1546;DHT22;766;51.502;9.752;2023-12-20T13:14:06;4.40;99.90
1546;DHT22;766;51.502;9.752;2023-12-20T13:16:37;4.40;99.90
1546;DHT22;766;51.502;9.752;2023-12-20T13:19:05;4.40;99.90
1546;DHT22;766;51.502;9.752;2023-12-20T13:21:34;4.40;99.90
1546;DHT22;766;51.502;9.752;2023-12-20T13:24:02;4.40;99.90
1546;DHT22;766;51.502;9.752;2023-12-20T13:26:31;4.50;99.90
1546;DHT22;766;51.502;9.752;2023-12-20T13:29:01;4.50;99.90
1546;DHT22;766;51.502;9.752;2023-12-20T13:31:29;4.50;99.90
1546;DHT22;766;51.502;9.752;2023-12-20T13:33:58;4.50;99.90
1546;DHT22;766;51.502;9.752;2023-12-20T13:36:27;4.60;99.90
1546;DHT22;766;51.502;9.752;2023-12-20T13:38:55;4.60;99.90
1546;DHT22;766;51.502;9.752;2023-12-20T13:41:23;4.60;99.90
1546;DHT22;766;51.502;9.752;2023-12-20T13:43:52;4.60;99.90
1546;DHT22;766;51.502;9.752;2023-12-20T13:46:22;4.60;99.90
1546;DHT22;766;51.502;9.752;2023-12-20T13:48:51;4.60;99.90
1546;DHT22;766;51.502;9.752;2023-12-20T13:51:19;4.60;99.90
1546;DHT22;766;51.502;9.752;2023-12-20T13:53:48;4.70;99.90
1546;DHT22;766;51.502;9.752;2023-12-20T13:56:16;4.70;99.90
1546;DHT22;766;51.502;9.752;2023-12-20T13:58:47;4.70;99.90
1546;DHT22;766;51.502;9.752;2023-12-20T14:01:18;4.70;99.90
1546;DHT22;766;51.502;9.752;2023-12-20T14:03:48;4.70;99.90
1546;DHT22;766;51.502;9.752;2023-12-20T14:06:17;4.80;99.90
1546;DHT22;766;51.502;9.752;2023-12-20T14:08:45;4.80;99.90
1546;DHT22;766;51.502;9.752;2023-12-20T14:11:13;4.80;99.90
1546;DHT22;766;51.502;9.752;2023-12-20T14:13:42;4.80;99.90
1546;DHT22;766;51.502;9.752;2023-12-20T14:16:10;4.80;99.90
1546;DHT22;766;51.502;9.752;2023-12-20T14:18:39;4.80;99.90
1546;DHT22;766;51.502;9.752;2023-12-20T14:21:09;4.80;99.90
1546;DHT22;766;51.502;9.752;2023-12-20T14:23:37;4.80;99.90
1546;DHT22;766;51.502;9.752;2023-12-20T14:26:05;4.80;99.90
1546;DHT22;766;51.502;9.752;2023-12-20T14:28:33;4.80;99.90
1546;DHT22;766;51.502;9.752;2023-12-20T14:31:02;4.80;99.90
1546;DHT22;766;51.502;9.752;2023-12-20T14:33:30;4.70;99.90
1546;DHT22;766;51.502;9.752;2023-12-20T14:35:58;4.70;99.90
1546;DHT22;766;51.502;9.752;2023-12-20T14:38:28;4.70;99.90
1546;DHT22;766;51.502;9.752;2023-12-20T14:40:56;4.80;99.90
1546;DHT22;766;51.502;9.752;2023-12-20T14:43:25;4.80;99.90
1546;DHT22;766;51.502;9.752;2023-12-20T14:45:53;4.80;99.90
1546;DHT22;766;51.502;9.752;2023-12-20T14:48:22;4.80;99.90
1546;DHT22;766;51.502;9.752;2023-12-20T14:50:50;4.80;99.90
1546;DHT22;766;51.502;9.752;2023-12-20T14:53:19;4.70;99.90
1546;DHT22;766;51.502;9.752;2023-12-20T14:55:51;4.70;99.90
1546;DHT22;766;51.502;9.752;2023-12-20T14:58:19;4.70;99.90
1546;DHT22;766;51.502;9.752;2023-12-20T15:00:47;4.70;99.90
1546;DHT22;766;51.502;9.752;2023-12-20T15:03:15;4.70;99.90
1546;DHT22;766;51.502;9.752;2023-12-20T15:05:44;4.80;99.90
1546;DHT22;766;51.502;9.752;2023-12-20T15:08:14;4.80;99.90
1546;DHT22;766;51.502;9.752;2023-12-20T15:10:43;4.80;99.90
1546;DHT22;766;51.502;9.752;2023-12-20T15:13:12;4.80;99.90
1546;DHT22;766;51.502;9.752;2023-12-20T15:15:41;4.80;99.90
1546;DHT22;766;51.502;9.752;2023-12-20T15:18:13;4.80;99.90
1546;DHT22;766;51.502;9.752;2023-12-20T15:20:41;4.80;99.90
1546;DHT22;766;51.502;9.752;2023-12-20T15:23:11;4.80;99.90
1546;DHT22;766;51.502;9.752;2023-12-20T15:25:40;4.80;99.90
1546;DHT22;766;51.502;9.752;2023-12-20T15:28:09;4.80;99.90
1546;DHT22;766;51.502;9.752;2023-12-20T15:30:39;4.80;99.90
1546;DHT22;766;51.502;9.752;2023-12-20T15:33:10;4.80;99.90
1546;DHT22;766;51.502;9.752;2023-12-20T15:35:38;4.80;99.90
1546;DHT22;766;51.502;9.752;2023-12-20T15:38:07;4.80;99.90
1546;DHT22;766;51.502;9.752;2023-12-20T15:40:35;4.80;99.90
1546;DHT22;766;51.502;9.752;2023-12-20T15:43:04;4.70;99.90
1546;DHT22;766;51.502;9.752;2023-12-20T15:45:32;4.80;99.90
1546;DHT22;766;51.502;9.752;2023-12-20T15:48:01;4.70;99.90
1546;DHT22;766;51.502;9.752;2023-12-20T15:50:30;4.70;99.90
1546;DHT22;766;51.502;9.752;2023-12-20T15:52:59;4.70;99.90
1546;DHT22;766;51.502;9.752;2023-12-20T15:55:27;4.70;99.90
1546;DHT22;766;51.502;9.752;2023-12-20T15:57:55;4.70;99.90
1546;DHT22;766;51.502;9.752;2023-12-20T16:00:24;4.70;99.90
1546;DHT22;766;51.502;9.752;2023-12-20T16:02:52;4.80;99.90
1546;DHT22;766;51.502;9.752;2023-12-20T16:05:22;4.80;99.90
1546;DHT22;766;51.502;9.752;2023-12-20T16:07:50;4.80;99.90
1546;DHT22;766;51.502;9.752;2023-12-20T16:10:19;4.80;99.90
1546;DHT22;766;51.502;9.752;2023-12-20T16:12:47;4.80;99.90
1546;DHT22;766;51.502;9.752;2023-12-20T16:15:15;4.80;99.90
1546;DHT22;766;51.502;9.752;2023-12-20T16:17:44;4.80;99.90
1546;DHT22;766;51.502;9.752;2023-12-20T16:20:13;4.70;99.90
1546;DHT22;766;51.502;9.752;2023-12-20T16:22:43;4.70;99.90
1546;DHT22;766;51.502;9.752;2023-12-20T16:25:11;4.70;99.90
1546;DHT22;766;51.502;9.752;2023-12-20T16:27:39;4.70;99.90
1546;DHT22;766;51.502;9.752;2023-12-20T16:30:11;4.70;99.90
1546;DHT22;766;51.502;9.752;2023-12-20T16:32:39;4.70;99.90
1546;DHT22;766;51.502;9.752;2023-12-20T16:35:08;4.70;99.90
1546;DHT22;766;51.502;9.752;2023-12-20T16:37:36;4.70;99.90
1546;DHT22;766;51.502;9.752;2023-12-20T16:40:07;4.70;99.90
1546;DHT22;766;51.502;9.752;2023-12-20T16:42:36;4.70;99.90
1546;DHT22;766;51.502;9.752;2023-12-20T16:45:05;4.70;99.90
1546;DHT22;766;51.502;9.752;2023-12-20T16:47:34;4.70;99.90